createdAt,value
2018-04-17T00:00:35.752Z,4.00
2018-04-17T00:01:35.730Z,4.00
2018-04-17T00:02:35.709Z,4.00
2018-04-17T00:03:35.686Z,4.00
2018-04-17T00:04:35.664Z,4.00
2018-04-17T00:05:35.643Z,4.00
2018-04-17T00:06:35.624Z,4.00
2018-04-17T00:07:35.597Z,4.00
2018-04-17T00:08:37.082Z,4.00
2018-04-17T00:09:35.553Z,4.00
2018-04-17T00:10:35.530Z,4.00
2018-04-17T00:11:35.510Z,4.00
2018-04-17T00:12:35.486Z,4.00
2018-04-17T00:13:35.465Z,4.00
2018-04-17T00:14:35.441Z,4.00
2018-04-17T00:15:35.421Z,4.00
2018-04-17T00:16:35.396Z,4.00
2018-04-17T00:17:35.374Z,4.00
2018-04-17T00:18:35.351Z,4.00
2018-04-17T00:19:35.327Z,4.00
2018-04-17T00:20:35.306Z,4.00
2018-04-17T00:21:35.282Z,4.00
2018-04-17T00:22:35.260Z,4.00
2018-04-17T00:23:35.241Z,4.00
2018-04-17T00:24:35.216Z,4.00
2018-04-17T00:25:35.191Z,0.00
2018-04-17T00:26:35.169Z,4.00
2018-04-17T00:27:35.146Z,4.00
2018-04-17T00:28:35.125Z,4.00
2018-04-17T00:29:35.102Z,4.00
2018-04-17T00:30:35.083Z,4.00
2018-04-17T00:31:35.055Z,4.00
2018-04-17T00:32:35.038Z,4.00
2018-04-17T00:33:35.012Z,4.00
2018-04-17T00:34:34.988Z,4.00
2018-04-17T00:35:34.965Z,4.00
2018-04-17T00:36:36.444Z,4.00
2018-04-17T00:37:34.921Z,4.00
2018-04-17T00:38:34.897Z,4.00
2018-04-17T00:39:34.874Z,4.00
2018-04-17T00:40:34.852Z,4.00
2018-04-17T00:41:34.832Z,4.00
2018-04-17T00:42:34.905Z,4.00
2018-04-17T00:43:34.783Z,4.00
2018-04-17T00:44:34.760Z,4.00
2018-04-17T00:45:34.738Z,4.00
2018-04-17T00:46:34.714Z,4.00
2018-04-17T00:47:34.691Z,4.00
2018-04-17T00:48:34.669Z,4.00
2018-04-17T00:49:34.647Z,4.00
2018-04-17T00:50:34.623Z,4.00
2018-04-17T00:51:34.601Z,4.00
2018-04-17T00:52:34.612Z,4.00
2018-04-17T00:53:34.556Z,4.00
2018-04-17T00:54:34.532Z,4.00
2018-04-17T00:55:34.513Z,4.00
2018-04-17T00:56:34.487Z,4.00
2018-04-17T00:57:34.464Z,4.00
2018-04-17T00:58:35.943Z,4.00
2018-04-17T00:59:34.418Z,4.00
2018-04-17T01:00:34.395Z,4.00
2018-04-17T01:01:34.373Z,4.00
2018-04-17T01:02:34.348Z,4.00
2018-04-17T01:03:34.327Z,4.00
2018-04-17T01:04:34.303Z,4.00
2018-04-17T01:05:34.281Z,4.00
2018-04-17T01:06:34.260Z,4.00
2018-04-17T01:07:34.234Z,4.00
2018-04-17T01:08:34.210Z,4.00
2018-04-17T01:09:34.188Z,4.00
2018-04-17T01:10:34.164Z,4.00
2018-04-17T01:11:34.144Z,4.00
2018-04-17T01:12:34.119Z,4.00
2018-04-17T01:13:34.096Z,4.00
2018-04-17T01:14:34.072Z,4.00
2018-04-17T01:15:34.050Z,4.00
2018-04-17T01:16:34.027Z,4.00
2018-04-17T01:17:34.004Z,4.00
2018-04-17T01:18:33.980Z,4.00
2018-04-17T01:19:33.962Z,4.00
2018-04-17T01:20:33.935Z,4.00
2018-04-17T01:21:33.910Z,4.00
2018-04-17T01:22:33.887Z,4.00
2018-04-17T01:23:33.864Z,4.00
2018-04-17T01:24:33.842Z,4.00
2018-04-17T01:25:33.818Z,4.00
2018-04-17T01:26:33.794Z,4.00
2018-04-17T01:27:33.773Z,4.00
2018-04-17T01:28:33.749Z,4.00
2018-04-17T01:29:33.725Z,4.00
2018-04-17T01:30:33.705Z,4.00
2018-04-17T01:31:33.679Z,4.00
2018-04-17T01:32:33.656Z,4.00
2018-04-17T01:33:33.637Z,4.00
2018-04-17T01:34:33.613Z,4.00
2018-04-17T01:35:33.587Z,4.00
2018-04-17T01:36:33.563Z,4.00
2018-04-17T01:37:33.540Z,4.00
2018-04-17T01:38:33.518Z,4.00
2018-04-17T01:39:33.497Z,4.00
2018-04-17T01:40:33.472Z,4.00
2018-04-17T01:41:33.449Z,4.00
2018-04-17T01:42:34.926Z,4.00
2018-04-17T01:43:33.402Z,4.00
2018-04-17T01:44:33.379Z,4.00
2018-04-17T01:45:33.357Z,4.00
2018-04-17T01:46:33.337Z,4.00
2018-04-17T01:47:33.308Z,4.00
2018-04-17T01:48:34.038Z,4.00
2018-04-17T01:49:33.264Z,4.00
2018-04-17T01:50:33.241Z,4.00
2018-04-17T01:51:33.217Z,4.00
2018-04-17T01:52:33.195Z,4.00
2018-04-17T01:53:33.172Z,4.00
2018-04-17T01:54:33.149Z,4.00
2018-04-17T01:55:33.126Z,4.00
2018-04-17T01:56:33.104Z,4.00
2018-04-17T01:57:33.080Z,4.00
2018-04-17T01:58:33.061Z,4.00
2018-04-17T01:59:33.035Z,4.00
2018-04-17T02:00:33.012Z,4.00
2018-04-17T02:01:32.989Z,4.00
2018-04-17T02:02:32.966Z,4.00
2018-04-17T02:03:32.942Z,0.00
2018-04-17T02:04:33.670Z,4.00
2018-04-17T02:05:32.897Z,4.00
2018-04-17T02:06:32.873Z,4.00
2018-04-17T02:07:32.852Z,4.00
2018-04-17T02:08:32.827Z,4.00
2018-04-17T02:09:32.803Z,4.00
2018-04-17T02:10:32.782Z,4.00
2018-04-17T02:11:32.757Z,4.00
2018-04-17T02:12:32.735Z,4.00
2018-04-17T02:13:32.711Z,4.00
2018-04-17T02:14:32.685Z,4.00
2018-04-17T02:15:32.666Z,4.00
2018-04-17T02:16:32.645Z,4.00
2018-04-17T02:17:32.620Z,4.00
2018-04-17T02:18:32.596Z,4.00
2018-04-17T02:19:32.571Z,4.00
2018-04-17T02:20:32.546Z,4.00
2018-04-17T02:21:32.525Z,4.00
2018-04-17T02:22:32.501Z,4.00
2018-04-17T02:23:32.478Z,4.00
2018-04-17T02:24:32.455Z,4.00
2018-04-17T02:25:32.435Z,4.00
2018-04-17T02:26:32.408Z,4.00
2018-04-17T02:27:32.385Z,4.00
2018-04-17T02:28:32.365Z,4.00
2018-04-17T02:29:32.338Z,4.00
2018-04-17T02:30:32.314Z,4.00
2018-04-17T02:31:32.291Z,4.00
2018-04-17T02:32:32.269Z,4.00
2018-04-17T02:33:32.249Z,4.00
2018-04-17T02:34:32.220Z,4.00
2018-04-17T02:35:32.198Z,4.00
2018-04-17T02:36:32.175Z,4.00
2018-04-17T02:37:32.153Z,4.00
2018-04-17T02:38:32.128Z,4.00
2018-04-17T02:39:32.104Z,4.00
2018-04-17T02:40:32.081Z,4.00
2018-04-17T02:41:32.059Z,4.00
2018-04-17T02:42:32.033Z,4.00
2018-04-17T02:43:32.012Z,4.00
2018-04-17T02:44:31.987Z,4.00
2018-04-17T02:45:31.971Z,4.00
2018-04-17T02:46:31.938Z,4.00
2018-04-17T02:47:31.972Z,4.00
2018-04-17T02:48:31.894Z,4.00
2018-04-17T02:49:31.869Z,4.00
2018-04-17T02:50:31.844Z,4.00
2018-04-17T02:51:31.822Z,4.00
2018-04-17T02:52:31.799Z,4.00
2018-04-17T02:53:31.776Z,4.00
2018-04-17T02:54:31.751Z,4.00
2018-04-17T02:55:31.730Z,4.00
2018-04-17T02:56:31.705Z,4.00
2018-04-17T02:57:31.683Z,4.00
2018-04-17T02:58:31.657Z,4.00
2018-04-17T02:59:31.633Z,4.00
2018-04-17T03:00:31.610Z,4.00
2018-04-17T03:01:31.590Z,4.00
2018-04-17T03:02:31.561Z,4.00
2018-04-17T03:03:31.539Z,4.00
2018-04-17T03:04:31.516Z,4.00
2018-04-17T03:05:31.497Z,4.00
2018-04-17T03:06:31.468Z,4.00
2018-04-17T03:07:31.446Z,4.00
2018-04-17T03:08:31.421Z,4.00
2018-04-17T03:09:31.465Z,4.00
2018-04-17T03:10:31.375Z,4.00
2018-04-17T03:11:31.359Z,4.00
2018-04-17T03:12:31.328Z,4.00
2018-04-17T03:13:31.306Z,4.00
2018-04-17T03:14:31.280Z,4.00
2018-04-17T03:15:31.262Z,4.00
2018-04-17T03:16:31.233Z,4.00
2018-04-17T03:17:31.211Z,4.00
2018-04-17T03:18:31.186Z,4.00
2018-04-17T03:19:31.164Z,4.00
2018-04-17T03:20:31.140Z,4.00
2018-04-17T03:21:31.116Z,4.00
2018-04-17T03:22:31.093Z,4.00
2018-04-17T03:23:31.069Z,4.00
2018-04-17T03:24:31.046Z,4.00
2018-04-17T03:25:31.022Z,4.00
2018-04-17T03:26:30.998Z,4.00
2018-04-17T03:27:30.975Z,4.00
2018-04-17T03:28:30.956Z,4.00
2018-04-17T03:29:30.929Z,4.00
2018-04-17T03:30:30.915Z,4.00
2018-04-17T03:31:30.882Z,4.00
2018-04-17T03:32:30.858Z,4.00
2018-04-17T03:33:30.841Z,4.00
2018-04-17T03:34:30.810Z,4.00
2018-04-17T03:35:30.786Z,4.00
2018-04-17T03:36:30.762Z,0.00
2018-04-17T03:37:30.739Z,4.00
2018-04-17T03:38:30.714Z,4.00
2018-04-17T03:39:30.691Z,4.00
2018-04-17T03:40:30.669Z,4.00
2018-04-17T03:41:30.644Z,4.00
2018-04-17T03:42:30.620Z,4.00
2018-04-17T03:43:30.595Z,4.00
2018-04-17T03:44:30.573Z,4.00
2018-04-17T03:45:30.550Z,4.00
2018-04-17T03:46:30.523Z,4.00
2018-04-17T03:47:30.501Z,4.00
2018-04-17T03:48:30.476Z,4.00
2018-04-17T03:49:30.453Z,4.00
2018-04-17T03:50:30.428Z,0.00
2018-04-17T03:51:30.405Z,4.00
2018-04-17T03:52:30.387Z,0.00
2018-04-17T03:53:30.358Z,0.00
2018-04-17T03:54:30.334Z,0.00
2018-04-17T03:55:30.310Z,0.00
2018-04-17T03:56:30.287Z,0.00
2018-04-17T03:57:30.262Z,0.00
2018-04-17T03:58:30.246Z,0.00
2018-04-17T03:59:30.215Z,0.00
2018-04-17T04:00:30.192Z,4.00
2018-04-17T04:01:30.168Z,4.00
2018-04-17T04:02:30.142Z,4.00
2018-04-17T04:03:30.122Z,4.00
2018-04-17T04:04:30.096Z,4.00
2018-04-17T04:05:30.073Z,4.00
2018-04-17T04:06:30.049Z,4.00
2018-04-17T04:07:30.025Z,8.00
2018-04-17T04:08:30.002Z,4.00
2018-04-17T04:09:29.977Z,4.00
2018-04-17T04:10:29.954Z,8.00
2018-04-17T04:11:29.929Z,4.00
2018-04-17T04:12:29.907Z,8.00
2018-04-17T04:13:29.882Z,8.00
2018-04-17T04:14:29.858Z,8.00
2018-04-17T04:15:29.834Z,12.00
2018-04-17T04:16:29.811Z,12.00
2018-04-17T04:17:29.795Z,16.00
2018-04-17T04:18:29.761Z,16.00
2018-04-17T04:19:29.738Z,24.00
2018-04-17T04:20:29.714Z,28.00
2018-04-17T04:21:29.690Z,28.00
2018-04-17T04:22:29.668Z,36.00
2018-04-17T04:23:29.641Z,40.00
2018-04-17T04:24:29.620Z,44.00
2018-04-17T04:25:29.596Z,52.00
2018-04-17T04:26:29.570Z,56.00
2018-04-17T04:27:29.606Z,68.00
2018-04-17T04:28:29.523Z,76.00
2018-04-17T04:29:29.499Z,88.00
2018-04-17T04:30:29.475Z,100.00
2018-04-17T04:31:29.452Z,108.00
2018-04-17T04:32:29.428Z,120.00
2018-04-17T04:33:29.404Z,128.00
2018-04-17T04:34:29.379Z,140.00
2018-04-17T04:35:29.356Z,148.00
2018-04-17T04:36:29.337Z,160.00
2018-04-17T04:37:29.311Z,176.00
2018-04-17T04:38:29.283Z,184.00
2018-04-17T04:39:29.259Z,188.00
2018-04-17T04:40:29.236Z,204.00
2018-04-17T04:41:29.211Z,212.00
2018-04-17T04:42:29.191Z,228.00
2018-04-17T04:43:29.174Z,240.00
2018-04-17T04:44:29.140Z,260.00
2018-04-17T04:45:29.117Z,280.00
2018-04-17T04:46:29.093Z,296.00
2018-04-17T04:47:29.069Z,308.00
2018-04-17T04:48:29.046Z,324.00
2018-04-17T04:49:29.022Z,344.00
2018-04-17T04:50:28.998Z,372.00
2018-04-17T04:51:28.974Z,400.00
2018-04-17T04:52:28.955Z,440.00
2018-04-17T04:53:28.929Z,456.00
2018-04-17T04:54:28.901Z,496.00
2018-04-17T04:55:28.878Z,524.00
2018-04-17T04:56:28.856Z,544.00
2018-04-17T04:57:28.832Z,572.00
2018-04-17T04:58:28.812Z,600.00
2018-04-17T04:59:29.541Z,628.00
2018-04-17T05:00:28.761Z,668.00
2018-04-17T05:01:28.740Z,700.00
2018-04-17T05:02:28.718Z,728.00
2018-04-17T05:03:28.691Z,776.00
2018-04-17T05:04:28.667Z,804.00
2018-04-17T05:05:28.644Z,832.00
2018-04-17T05:06:28.619Z,860.00
2018-04-17T05:07:28.597Z,892.00
2018-04-17T05:08:28.574Z,928.00
2018-04-17T05:09:28.551Z,972.00
2018-04-17T05:10:28.526Z,1008.00
2018-04-17T05:11:28.502Z,1028.00
2018-04-17T05:12:28.480Z,1052.00
2018-04-17T05:13:28.458Z,1084.00
2018-04-17T05:14:28.432Z,1124.00
2018-04-17T05:15:28.408Z,1176.00
2018-04-17T05:16:28.362Z,1224.00
2018-04-17T05:17:28.338Z,1244.00
2018-04-17T05:18:28.335Z,1280.00
2018-04-17T05:19:28.294Z,1320.00
2018-04-17T05:20:28.271Z,1368.00
2018-04-17T05:21:28.248Z,1408.00
2018-04-17T05:22:28.221Z,1464.00
2018-04-17T05:23:28.198Z,1504.00
2018-04-17T05:24:28.176Z,1532.00
2018-04-17T05:25:28.153Z,1540.00
2018-04-17T05:26:28.128Z,1536.00
2018-04-17T05:27:28.104Z,1556.00
2018-04-17T05:28:28.081Z,1548.00
2018-04-17T05:29:28.058Z,1572.00
2018-04-17T05:30:28.035Z,1616.00
2018-04-17T05:31:28.012Z,1660.00
2018-04-17T05:32:27.992Z,1672.00
2018-04-17T05:33:27.964Z,1648.00
2018-04-17T05:34:27.941Z,1616.00
2018-04-17T05:35:27.918Z,1580.00
2018-04-17T05:36:32.400Z,1568.00
2018-04-17T05:37:27.872Z,1572.00
2018-04-17T05:38:27.853Z,1548.00
2018-04-17T05:39:27.826Z,1548.00
2018-04-17T05:40:27.808Z,1576.00
2018-04-17T05:41:27.779Z,1592.00
2018-04-17T05:42:27.757Z,1640.00
2018-04-17T05:43:27.733Z,1708.00
2018-04-17T05:44:27.710Z,1772.00
2018-04-17T05:45:27.688Z,1808.00
2018-04-17T05:46:27.665Z,1820.00
2018-04-17T05:47:27.640Z,1880.00
2018-04-17T05:48:27.619Z,1912.00
2018-04-17T05:49:27.595Z,1908.00
2018-04-17T05:50:27.572Z,1908.00
2018-04-17T05:51:27.549Z,1952.00
2018-04-17T05:52:27.525Z,1972.00
2018-04-17T05:53:27.503Z,2000.00
2018-04-17T05:54:27.480Z,2036.00
2018-04-17T05:55:27.458Z,2060.00
2018-04-17T05:56:27.435Z,2076.00
2018-04-17T05:57:27.411Z,2120.00
2018-04-17T05:58:27.389Z,2168.00
2018-04-17T05:59:27.371Z,2180.00
2018-04-17T06:00:27.342Z,2200.00
2018-04-17T06:01:27.320Z,2232.00
2018-04-17T06:02:27.297Z,2244.00
2018-04-17T06:03:27.275Z,2284.00
2018-04-17T06:04:27.283Z,2364.00
2018-04-17T06:05:27.229Z,2404.00
2018-04-17T06:06:27.205Z,2432.00
2018-04-17T06:07:27.183Z,2468.00
2018-04-17T06:08:27.162Z,2500.00
2018-04-17T06:09:27.138Z,2568.00
2018-04-17T06:10:27.114Z,2644.00
2018-04-17T06:11:27.092Z,2732.00
2018-04-17T06:12:27.073Z,2892.00
2018-04-17T06:13:27.047Z,2988.00
2018-04-17T06:14:27.025Z,3056.00
2018-04-17T06:15:27.002Z,3112.00
2018-04-17T06:16:26.979Z,3172.00
2018-04-17T06:17:26.957Z,3252.00
2018-04-17T06:18:26.934Z,3276.00
2018-04-17T06:19:26.912Z,3352.00
2018-04-17T06:20:26.890Z,3372.00
2018-04-17T06:21:26.868Z,3356.00
2018-04-17T06:22:26.844Z,3352.00
2018-04-17T06:23:26.821Z,3396.00
2018-04-17T06:24:26.800Z,3488.00
2018-04-17T06:25:26.777Z,3584.00
2018-04-17T06:26:26.755Z,3676.00
2018-04-17T06:27:26.733Z,3672.00
2018-04-17T06:28:26.710Z,3760.00
2018-04-17T06:29:26.691Z,3816.00
2018-04-17T06:30:26.670Z,3740.00
2018-04-17T06:31:27.393Z,3712.00
2018-04-17T06:32:26.621Z,3648.00
2018-04-17T06:33:26.599Z,3656.00
2018-04-17T06:34:26.577Z,3756.00
2018-04-17T06:35:26.555Z,3884.00
2018-04-17T06:36:26.534Z,3908.00
2018-04-17T06:37:26.511Z,3820.00
2018-04-17T06:38:26.489Z,3792.00
2018-04-17T06:39:26.471Z,3820.00
2018-04-17T06:40:26.445Z,3820.00
2018-04-17T06:41:26.458Z,3864.00
2018-04-17T06:42:26.404Z,3900.00
2018-04-17T06:43:26.379Z,3888.00
2018-04-17T06:44:26.358Z,3848.00
2018-04-17T06:45:26.336Z,3792.00
2018-04-17T06:46:26.313Z,3764.00
2018-04-17T06:47:26.299Z,3736.00
2018-04-17T06:48:26.271Z,3764.00
2018-04-17T06:49:26.253Z,3712.00
2018-04-17T06:50:26.226Z,3820.00
2018-04-17T06:51:26.204Z,3872.00
2018-04-17T06:52:26.189Z,4040.00
2018-04-17T06:53:29.166Z,4220.00
2018-04-17T06:54:26.140Z,4364.00
2018-04-17T06:55:26.118Z,4484.00
2018-04-17T06:56:26.099Z,4580.00
2018-04-17T06:57:26.075Z,4696.00
2018-04-17T06:58:26.052Z,4808.00
2018-04-17T06:59:26.783Z,4860.00
2018-04-17T07:00:26.010Z,4936.00
2018-04-17T07:01:25.988Z,4992.00
2018-04-17T07:02:25.966Z,4976.00
2018-04-17T07:03:25.944Z,5052.00
2018-04-17T07:04:25.923Z,5100.00
2018-04-17T07:05:25.907Z,4976.00
2018-04-17T07:06:25.879Z,4960.00
2018-04-17T07:07:25.858Z,4884.00
2018-04-17T07:08:25.838Z,5020.00
2018-04-17T07:09:25.817Z,5092.00
2018-04-17T07:10:25.794Z,5252.00
2018-04-17T07:11:25.772Z,5260.00
2018-04-17T07:12:25.752Z,5384.00
2018-04-17T07:13:25.732Z,5612.00
2018-04-17T07:14:25.721Z,5672.00
2018-04-17T07:15:25.686Z,5768.00
2018-04-17T07:16:25.666Z,5960.00
2018-04-17T07:17:25.643Z,5972.00
2018-04-17T07:18:25.624Z,5684.00
2018-04-17T07:19:25.607Z,5412.00
2018-04-17T07:20:25.582Z,5556.00
2018-04-17T07:21:25.560Z,5716.00
2018-04-17T07:22:25.536Z,5820.00
2018-04-17T07:23:25.517Z,5880.00
2018-04-17T07:24:25.494Z,5960.00
2018-04-17T07:25:25.477Z,6036.00
2018-04-17T07:26:25.453Z,6044.00
2018-04-17T07:27:25.431Z,5992.00
2018-04-17T07:28:25.409Z,6280.00
2018-04-17T07:29:25.416Z,6640.00
2018-04-17T07:30:25.367Z,6572.00
2018-04-17T07:31:25.345Z,6256.00
2018-04-17T07:32:25.324Z,6348.00
2018-04-17T07:33:25.304Z,6292.00
2018-04-17T07:34:25.281Z,6480.00
2018-04-17T07:35:25.262Z,6460.00
2018-04-17T07:36:25.240Z,6772.00
2018-04-17T07:37:25.219Z,7240.00
2018-04-17T07:38:25.198Z,6988.00
2018-04-17T07:39:25.288Z,6904.00
2018-04-17T07:40:25.245Z,7012.00
2018-04-17T07:41:25.134Z,6844.00
2018-04-17T07:42:25.115Z,6608.00
2018-04-17T07:43:25.092Z,7056.00
2018-04-17T07:44:25.072Z,7220.00
2018-04-17T07:45:25.050Z,7336.00
2018-04-17T07:46:25.030Z,7656.00
2018-04-17T07:47:25.058Z,7580.00
2018-04-17T07:48:24.990Z,7608.00
2018-04-17T07:49:24.968Z,7720.00
2018-04-17T07:50:24.945Z,7836.00
2018-04-17T07:51:24.928Z,8308.00
2018-04-17T07:52:24.905Z,8436.00
2018-04-17T07:53:24.884Z,8064.00
2018-04-17T07:54:24.864Z,7836.00
2018-04-17T07:55:24.842Z,7516.00
2018-04-17T07:56:24.823Z,7364.00
2018-04-17T07:57:24.803Z,7564.00
2018-04-17T07:58:24.781Z,7272.00
2018-04-17T07:59:25.511Z,7224.00
2018-04-17T08:00:24.741Z,7128.00
2018-04-17T08:01:24.722Z,6484.00
2018-04-17T08:02:24.698Z,6404.00
2018-04-17T08:03:24.678Z,6012.00
2018-04-17T08:04:24.658Z,6036.00
2018-04-17T08:05:24.638Z,6068.00
2018-04-17T08:06:24.618Z,5988.00
2018-04-17T08:07:24.597Z,5652.00
2018-04-17T08:08:24.577Z,5372.00
2018-04-17T08:09:24.557Z,5220.00
2018-04-17T08:10:24.536Z,4980.00
2018-04-17T08:11:24.514Z,4728.00
2018-04-17T08:12:24.495Z,4880.00
2018-04-17T08:13:24.473Z,4672.00
2018-04-17T08:14:24.452Z,4544.00
2018-04-17T08:15:24.431Z,4712.00
2018-04-17T08:16:24.412Z,5052.00
2018-04-17T08:17:24.390Z,4684.00
2018-04-17T08:18:24.369Z,4300.00
2018-04-17T08:19:24.388Z,4208.00
2018-04-17T08:20:24.329Z,3980.00
2018-04-17T08:21:24.306Z,3788.00
2018-04-17T08:22:24.285Z,3964.00
2018-04-17T08:23:24.264Z,4000.00
2018-04-17T08:24:24.243Z,4096.00
2018-04-17T08:25:24.227Z,3988.00
2018-04-17T08:26:24.204Z,4060.00
2018-04-17T08:27:24.179Z,4404.00
2018-04-17T08:28:24.158Z,4444.00
2018-04-17T08:29:24.144Z,4424.00
2018-04-17T08:30:24.116Z,4208.00
2018-04-17T08:31:24.096Z,4076.00
2018-04-17T08:32:24.074Z,4128.00
2018-04-17T08:33:24.054Z,4168.00
2018-04-17T08:34:24.031Z,4072.00
2018-04-17T08:35:24.011Z,3956.00
2018-04-17T08:36:23.990Z,4112.00
2018-04-17T08:37:23.967Z,4160.00
2018-04-17T08:38:23.946Z,4136.00
2018-04-17T08:39:23.925Z,4116.00
2018-04-17T08:40:23.904Z,3980.00
2018-04-17T08:41:23.883Z,3936.00
2018-04-17T08:42:23.860Z,3984.00
2018-04-17T08:43:23.840Z,3916.00
2018-04-17T08:44:23.833Z,3912.00
2018-04-17T08:45:23.798Z,3884.00
2018-04-17T08:46:23.775Z,3848.00
2018-04-17T08:47:23.756Z,3872.00
2018-04-17T08:48:23.733Z,3796.00
2018-04-17T08:49:23.712Z,3796.00
2018-04-17T08:50:23.690Z,3772.00
2018-04-17T08:51:23.669Z,3760.00
2018-04-17T08:52:23.648Z,3752.00
2018-04-17T08:53:23.631Z,3728.00
2018-04-17T08:54:23.654Z,3748.00
2018-04-17T08:55:23.585Z,3736.00
2018-04-17T08:56:23.564Z,3720.00
2018-04-17T08:57:23.549Z,3692.00
2018-04-17T08:58:23.520Z,3692.00
2018-04-17T08:59:23.499Z,3680.00
2018-04-17T09:00:23.478Z,3704.00
2018-04-17T09:01:23.457Z,3700.00
2018-04-17T09:02:23.440Z,3700.00
2018-04-17T09:03:23.415Z,3696.00
2018-04-17T09:04:23.395Z,3684.00
2018-04-17T09:05:23.374Z,3672.00
2018-04-17T09:06:23.352Z,3668.00
2018-04-17T09:07:23.330Z,3644.00
2018-04-17T09:08:23.310Z,3628.00
2018-04-17T09:09:23.289Z,3696.00
2018-04-17T09:10:23.268Z,3632.00
2018-04-17T09:11:23.247Z,3652.00
2018-04-17T09:12:23.225Z,3644.00
2018-04-17T09:13:23.205Z,3640.00
2018-04-17T09:14:23.183Z,3660.00
2018-04-17T09:15:23.163Z,3680.00
2018-04-17T09:16:23.143Z,3688.00
2018-04-17T09:17:23.121Z,3680.00
2018-04-17T09:18:23.101Z,3696.00
2018-04-17T09:19:23.079Z,3692.00
2018-04-17T09:20:23.058Z,3664.00
2018-04-17T09:21:23.039Z,3656.00
2018-04-17T09:22:23.017Z,3636.00
2018-04-17T09:23:22.996Z,3644.00
2018-04-17T09:24:22.976Z,3624.00
2018-04-17T09:25:22.954Z,3632.00
2018-04-17T09:26:22.934Z,3608.00
2018-04-17T09:27:22.912Z,3608.00
2018-04-17T09:28:22.892Z,3608.00
2018-04-17T09:29:22.926Z,3616.00
2018-04-17T09:30:22.850Z,3608.00
2018-04-17T09:31:22.830Z,3628.00
2018-04-17T09:32:22.809Z,3616.00
2018-04-17T09:33:22.790Z,3632.00
2018-04-17T09:34:22.769Z,3632.00
2018-04-17T09:35:22.751Z,3676.00
2018-04-17T09:36:22.727Z,3652.00
2018-04-17T09:37:22.709Z,3656.00
2018-04-17T09:38:24.938Z,3656.00
2018-04-17T09:39:22.667Z,3656.00
2018-04-17T09:40:22.646Z,3656.00
2018-04-17T09:41:22.627Z,3700.00
2018-04-17T09:42:22.606Z,3704.00
2018-04-17T09:43:22.586Z,3692.00
2018-04-17T09:44:23.315Z,3716.00
2018-04-17T09:45:22.546Z,3696.00
2018-04-17T09:46:22.524Z,3728.00
2018-04-17T09:47:22.505Z,3752.00
2018-04-17T09:48:22.485Z,3748.00
2018-04-17T09:49:22.464Z,3784.00
2018-04-17T09:50:22.444Z,3760.00
2018-04-17T09:51:22.424Z,3744.00
2018-04-17T09:52:22.403Z,3716.00
2018-04-17T09:53:22.383Z,3724.00
2018-04-17T09:54:22.364Z,3688.00
2018-04-17T09:55:23.093Z,3688.00
2018-04-17T09:56:22.323Z,3684.00
2018-04-17T09:57:22.303Z,3684.00
2018-04-17T09:58:22.283Z,3668.00
2018-04-17T09:59:22.264Z,3708.00
2018-04-17T10:00:22.244Z,3744.00
2018-04-17T10:01:22.226Z,3724.00
2018-04-17T10:02:22.203Z,3736.00
2018-04-17T10:03:22.184Z,3736.00
2018-04-17T10:04:22.165Z,3752.00
2018-04-17T10:05:22.143Z,3764.00
2018-04-17T10:06:22.124Z,3776.00
2018-04-17T10:07:22.104Z,3764.00
2018-04-17T10:08:22.084Z,3768.00
2018-04-17T10:09:22.066Z,3784.00
2018-04-17T10:10:22.044Z,3768.00
2018-04-17T10:11:22.026Z,3748.00
2018-04-17T10:12:22.006Z,3748.00
2018-04-17T10:13:22.037Z,3740.00
2018-04-17T10:14:21.966Z,3780.00
2018-04-17T10:15:21.948Z,3748.00
2018-04-17T10:16:24.936Z,3756.00
2018-04-17T10:17:21.955Z,3764.00
2018-04-17T10:18:21.888Z,3768.00
2018-04-17T10:19:21.868Z,3772.00
2018-04-17T10:20:21.850Z,3780.00
2018-04-17T10:21:21.829Z,3760.00
2018-04-17T10:22:21.812Z,3736.00
2018-04-17T10:23:21.789Z,3732.00
2018-04-17T10:24:21.772Z,3740.00
2018-04-17T10:25:21.752Z,3764.00
2018-04-17T10:26:21.731Z,3732.00
2018-04-17T10:27:21.712Z,3732.00
2018-04-17T10:28:21.693Z,3760.00
2018-04-17T10:29:21.674Z,3776.00
2018-04-17T10:30:21.684Z,3788.00
2018-04-17T10:31:21.636Z,3816.00
2018-04-17T10:32:21.616Z,3780.00
2018-04-17T10:33:21.597Z,3776.00
2018-04-17T10:34:21.578Z,3772.00
2018-04-17T10:35:21.558Z,3776.00
2018-04-17T10:36:21.543Z,3800.00
2018-04-17T10:37:21.526Z,3788.00
2018-04-17T10:38:21.503Z,3768.00
2018-04-17T10:39:21.483Z,3768.00
2018-04-17T10:40:21.464Z,3764.00
2018-04-17T10:41:21.446Z,3752.00
2018-04-17T10:42:21.427Z,3760.00
2018-04-17T10:43:22.156Z,3756.00
2018-04-17T10:44:21.389Z,3764.00
2018-04-17T10:45:21.371Z,3728.00
2018-04-17T10:46:21.351Z,3748.00
2018-04-17T10:47:21.332Z,3720.00
2018-04-17T10:48:21.317Z,3708.00
2018-04-17T10:49:21.295Z,3696.00
2018-04-17T10:50:21.276Z,3732.00
2018-04-17T10:51:21.258Z,3744.00
2018-04-17T10:52:21.238Z,3768.00
2018-04-17T10:53:21.219Z,3764.00
2018-04-17T10:54:21.200Z,3764.00
2018-04-17T10:55:21.182Z,3696.00
2018-04-17T10:56:21.163Z,3700.00
2018-04-17T10:57:21.149Z,3696.00
2018-04-17T10:58:21.129Z,3700.00
2018-04-17T10:59:21.109Z,3708.00
2018-04-17T11:00:21.090Z,3732.00
2018-04-17T11:01:21.072Z,3740.00
2018-04-17T11:02:21.053Z,3740.00
2018-04-17T11:03:21.095Z,3752.00
2018-04-17T11:04:21.016Z,3768.00
2018-04-17T11:05:20.999Z,3796.00
2018-04-17T11:06:20.981Z,3804.00
2018-04-17T11:07:20.963Z,3816.00
2018-04-17T11:08:20.942Z,3808.00
2018-04-17T11:09:20.925Z,3840.00
2018-04-17T11:10:20.911Z,3832.00
2018-04-17T11:11:20.888Z,3832.00
2018-04-17T11:12:20.869Z,3864.00
2018-04-17T11:13:20.851Z,3892.00
2018-04-17T11:14:20.833Z,3956.00
2018-04-17T11:15:20.815Z,3940.00
2018-04-17T11:16:20.846Z,3932.00
2018-04-17T11:17:20.780Z,3944.00
2018-04-17T11:18:20.760Z,3972.00
2018-04-17T11:19:20.743Z,4016.00
2018-04-17T11:20:20.726Z,4012.00
2018-04-17T11:21:20.706Z,3988.00
2018-04-17T11:22:20.687Z,4000.00
2018-04-17T11:23:20.671Z,4020.00
2018-04-17T11:24:20.659Z,4036.00
2018-04-17T11:25:20.634Z,4040.00
2018-04-17T11:26:20.620Z,4044.00
2018-04-17T11:27:20.598Z,4072.00
2018-04-17T11:28:20.581Z,4144.00
2018-04-17T11:29:20.562Z,4188.00
2018-04-17T11:30:20.544Z,4232.00
2018-04-17T11:31:20.528Z,3936.00
2018-04-17T11:32:20.509Z,4264.00
2018-04-17T11:33:20.491Z,4248.00
2018-04-17T11:34:20.473Z,4056.00
2018-04-17T11:35:20.456Z,4212.00
2018-04-17T11:36:20.438Z,4224.00
2018-04-17T11:37:20.421Z,4244.00
2018-04-17T11:38:20.402Z,4260.00
2018-04-17T11:39:20.384Z,4220.00
2018-04-17T11:40:20.366Z,4208.00
2018-04-17T11:41:20.349Z,4204.00
2018-04-17T11:42:20.334Z,4188.00
2018-04-17T11:43:20.312Z,4236.00
2018-04-17T11:44:20.296Z,4272.00
2018-04-17T11:45:20.278Z,4316.00
2018-04-17T11:46:20.261Z,4992.00
2018-04-17T11:47:20.243Z,4924.00
2018-04-17T11:48:20.231Z,4756.00
2018-04-17T11:49:20.209Z,4528.00
2018-04-17T11:50:20.189Z,4332.00
2018-04-17T11:51:20.174Z,4292.00
2018-04-17T11:52:20.156Z,4288.00
2018-04-17T11:53:20.137Z,4332.00
2018-04-17T11:54:20.119Z,4384.00
2018-04-17T11:55:20.103Z,4400.00
2018-04-17T11:56:20.086Z,4428.00
2018-04-17T11:57:20.072Z,4352.00
2018-04-17T11:58:20.050Z,4320.00
2018-04-17T11:59:20.035Z,4316.00
2018-04-17T12:00:20.016Z,4344.00
2018-04-17T12:01:20.750Z,4472.00
2018-04-17T12:02:20.020Z,4540.00
2018-04-17T12:03:19.965Z,4532.00
2018-04-17T12:04:19.948Z,4480.00
2018-04-17T12:05:19.931Z,4520.00
2018-04-17T12:06:19.912Z,4504.00
2018-04-17T12:07:19.894Z,4592.00
2018-04-17T12:08:19.878Z,4680.00
2018-04-17T12:09:19.861Z,4744.00
2018-04-17T12:10:19.848Z,3980.00
2018-04-17T12:11:19.826Z,4624.00
2018-04-17T12:12:19.811Z,4592.00
2018-04-17T12:13:19.794Z,4600.00
2018-04-17T12:14:19.778Z,4612.00
2018-04-17T12:15:19.760Z,4632.00
2018-04-17T12:16:19.742Z,5232.00
2018-04-17T12:17:19.726Z,5096.00
2018-04-17T12:18:19.708Z,5016.00
2018-04-17T12:19:19.692Z,4840.00
2018-04-17T12:20:19.731Z,4880.00
2018-04-17T12:21:19.661Z,5116.00
2018-04-17T12:22:19.642Z,5376.00
2018-04-17T12:23:19.623Z,5864.00
2018-04-17T12:24:19.607Z,6120.00
2018-04-17T12:25:19.591Z,5836.00
2018-04-17T12:26:19.572Z,6704.00
2018-04-17T12:27:19.559Z,6296.00
2018-04-17T12:28:19.544Z,5128.00
2018-04-17T12:29:19.523Z,5420.00
2018-04-17T12:30:19.512Z,3840.00
2018-04-17T12:31:19.493Z,3444.00